Time;durP1;ratioP1;P1;durP2;ratioP2;P2;SDS_P1;SDS_P2;PMS_P1;PMS_P2;Temp;Humidity;BMP_temperature;BMP_pressure;BME280_temperature;BME280_humidity;BME280_pressure;Samples;Min_cycle;Max_cycle;Signal;HPM_P1;HPM_P2
2021/08/17 00:00:14;;;;;;;0.83;0.80;;;;;;;13.33;77.77;99008.94;5128325;27;41952;-79
2021/08/17 00:02:42;;;;;;;0.30;0.30;;;;;;;13.36;78.18;99008.69;5128760;27;42454;-79
2021/08/17 00:05:11;;;;;;;0.43;0.43;;;;;;;13.36;78.22;99001.56;5111606;27;40206;-80
2021/08/17 00:07:38;;;;;;;0.57;0.57;;;;;;;13.43;77.96;99009.97;5128516;27;41109;-80
2021/08/17 00:10:07;;;;;;;1.10;0.60;;;;;;;13.33;78.20;98995.63;5128029;27;42090;-80
2021/08/17 00:12:36;;;;;;;0.90;0.60;;;;;;;13.39;78.01;99000.50;5129452;27;42229;-80
2021/08/17 00:15:05;;;;;;;0.50;0.40;;;;;;;13.27;77.90;98973.84;5127806;27;39159;-81
2021/08/17 00:17:34;;;;;;;0.53;0.43;;;;;;;13.43;77.86;99002.00;5128773;27;41927;-79
2021/08/17 00:20:03;;;;;;;1.07;1.00;;;;;;;13.29;77.60;98974.56;5128703;27;42894;-82
2021/08/17 00:22:31;;;;;;;0.83;0.73;;;;;;;13.36;77.72;98995.41;5111863;27;41369;-80
2021/08/17 00:24:59;;;;;;;1.70;1.30;;;;;;;13.15;77.49;98966.72;5111692;27;38968;-79
2021/08/17 00:27:26;;;;;;;0.47;0.43;;;;;;;13.33;77.67;98991.19;5111002;27;40858;-80
2021/08/17 00:29:59;;;;;;;0.40;0.40;;;;;;;13.25;77.54;98988.19;5111802;27;42412;-80
2021/08/17 00:32:26;;;;;;;0.40;0.40;;;;;;;13.23;77.26;98996.28;5112206;27;41427;-80
2021/08/17 00:34:56;;;;;;;0.67;0.60;;;;;;;13.00;77.21;98972.25;5129934;27;40768;-79
2021/08/17 00:37:23;;;;;;;0.60;0.60;;;;;;;13.09;77.16;98987.56;5130545;27;41868;-81
2021/08/17 00:39:51;;;;;;;0.47;0.47;;;;;;;13.02;77.14;98984.47;5129468;27;42907;-80
2021/08/17 00:42:18;;;;;;;1.00;0.90;;;;;;;13.01;77.28;98993.41;5129231;27;42149;-80
2021/08/17 00:44:46;;;;;;;0.70;0.70;;;;;;;12.94;77.42;98984.16;5130167;27;40045;-80
2021/08/17 00:47:15;;;;;;;1.53;1.43;;;;;;;12.90;78.14;98985.34;5130147;27;42940;-79
2021/08/17 00:49:43;;;;;;;0.70;0.70;;;;;;;12.87;77.57;98989.06;5112341;27;41689;-79
2021/08/17 00:52:15;;;;;;;1.67;0.60;;;;;;;12.94;77.89;99006.28;5111761;27;42117;-80
2021/08/17 00:54:44;;;;;;;0.43;0.43;;;;;;;12.88;77.52;99000.53;5112504;27;38668;-80
2021/08/17 00:57:12;;;;;;;0.60;0.60;;;;;;;12.91;77.67;99006.50;5130004;27;41816;-79
2021/08/17 00:59:40;;;;;;;0.77;0.60;;;;;;;12.87;77.49;99010.31;5129612;27;43075;-79
2021/08/17 01:02:08;;;;;;;1.00;0.70;;;;;;;12.87;77.40;99014.78;5125739;27;41053;-80
2021/08/17 01:04:39;;;;;;;0.70;0.70;;;;;;;12.85;77.45;99012.25;5141669;27;38961;-79
2021/08/17 01:07:07;;;;;;;0.70;0.70;;;;;;;12.99;77.60;99018.38;5126896;27;40850;-80
2021/08/17 01:09:37;;;;;;;0.83;0.70;;;;;;;13.04;77.86;99022.44;5126636;27;41740;-80
2021/08/17 01:12:05;;;;;;;1.80;1.23;;;;;;;12.87;77.84;98982.88;5143854;27;41416;-79
2021/08/17 01:14:33;;;;;;;1.37;1.00;;;;;;;12.97;78.12;98993.75;5143169;27;40420;-79
2021/08/17 01:17:02;;;;;;;1.00;0.73;;;;;;;13.08;77.54;99018.63;5144933;27;40734;-80
2021/08/17 01:19:29;;;;;;;0.93;0.80;;;;;;;13.06;77.75;99015.22;5116002;27;43063;-80
2021/08/17 01:21:58;;;;;;;1.20;0.53;;;;;;;12.94;77.33;99005.44;5132322;27;42235;-79
2021/08/17 01:24:26;;;;;;;0.60;0.57;;;;;;;13.06;77.92;99017.03;5131805;27;38881;-79
2021/08/17 01:26:55;;;;;;;0.93;0.70;;;;;;;13.07;77.64;99032.03;5115126;27;41026;-79
2021/08/17 01:29:24;;;;;;;1.47;0.90;;;;;;;13.09;78.28;99019.47;5130467;27;42013;-80
2021/08/17 01:31:51;;;;;;;1.03;0.90;;;;;;;13.10;78.23;99018.53;5114161;27;41370;-79
2021/08/17 01:34:19;;;;;;;2.13;1.30;;;;;;;13.05;78.09;99013.50;5130728;27;39150;-82
2021/08/17 01:36:47;;;;;;;0.80;0.80;;;;;;;12.83;77.89;98974.28;5115526;27;40748;-79
2021/08/17 01:39:16;;;;;;;0.80;0.80;;;;;;;12.96;77.92;99011.50;5114262;27;41784;-79
2021/08/17 01:41:43;;;;;;;0.60;0.60;;;;;;;13.02;77.86;99021.69;5132316;27;41201;-79
2021/08/17 01:44:13;;;;;;;0.97;0.70;;;;;;;12.85;77.96;99011.41;5132723;27;41072;-79
2021/08/17 01:46:42;;;;;;;1.23;1.10;;;;;;;12.83;77.97;99011.50;5114661;27;40841;-79
2021/08/17 01:49:11;;;;;;;1.37;1.00;;;;;;;12.88;78.03;99016.47;5114414;27;42118;-79
2021/08/17 01:51:38;;;;;;;1.07;0.60;;;;;;;12.85;78.09;99008.75;5114532;27;42163;-79
2021/08/17 01:54:07;;;;;;;1.07;0.97;;;;;;;12.79;78.09;99012.66;5130535;27;38967;-79
2021/08/17 01:56:35;;;;;;;1.40;1.20;;;;;;;12.71;77.87;99003.53;5130547;27;40836;-80
2021/08/17 01:59:04;;;;;;;1.30;1.23;;;;;;;12.70;77.75;99013.31;5131087;27;42809;-79
2021/08/17 02:01:34;;;;;;;0.90;0.83;;;;;;;12.69;78.00;99013.41;5114328;27;41133;-80
2021/08/17 02:04:02;;;;;;;1.03;1.03;;;;;;;12.70;77.96;99023.06;5131191;27;40241;-79
2021/08/17 02:06:29;;;;;;;1.77;1.07;;;;;;;12.61;78.16;99019.22;5131623;27;42714;-79
2021/08/17 02:08:58;;;;;;;0.83;0.60;;;;;;;12.52;78.39;99004.78;5114725;27;41982;-79
2021/08/17 02:11:25;;;;;;;1.03;0.73;;;;;;;12.59;78.49;99027.31;5131014;27;42558;-80
2021/08/17 02:13:53;;;;;;;0.97;0.97;;;;;;;12.54;78.43;99032.09;5130507;27;39895;-80
2021/08/17 02:16:20;;;;;;;1.20;1.00;;;;;;;12.61;78.54;99044.97;5113498;27;40833;-80
2021/08/17 02:18:49;;;;;;;0.73;0.73;;;;;;;12.61;79.08;99048.44;5131053;27;43912;-80
2021/08/17 02:21:17;;;;;;;1.13;0.90;;;;;;;12.56;79.12;99043.47;5131595;27;41262;-80
2021/08/17 02:23:45;;;;;;;0.93;0.87;;;;;;;12.50;78.63;99038.56;5130416;27;40466;-81
2021/08/17 02:26:12;;;;;;;1.53;1.13;;;;;;;12.57;78.73;99054.94;5131471;27;41179;-80
2021/08/17 02:28:40;;;;;;;1.00;0.80;;;;;;;12.56;78.95;99054.09;5113630;27;41976;-80
2021/08/17 02:31:07;;;;;;;1.03;1.00;;;;;;;12.55;78.94;99070.97;5130454;27;41166;-79
2021/08/17 02:33:34;;;;;;;1.27;1.10;;;;;;;12.44;78.82;99057.56;5130475;27;40051;-80
2021/08/17 02:36:03;;;;;;;0.95;0.60;;;;;;;12.50;78.46;99070.44;5113533;27;40836;-81
2021/08/17 02:38:31;;;;;;;1.13;0.87;;;;;;;12.49;78.53;99076.69;5113406;27;42762;-79
2021/08/17 02:40:59;;;;;;;0.80;0.80;;;;;;;12.48;78.39;99080.34;5113910;27;42211;-79
2021/08/17 02:43:27;;;;;;;1.23;1.03;;;;;;;12.50;78.71;99086.38;5131645;27;40674;-80
2021/08/17 02:45:56;;;;;;;2.03;0.83;;;;;;;12.51;78.45;99088.06;5113764;27;40557;-80
2021/08/17 02:48:24;;;;;;;1.27;0.93;;;;;;;12.51;78.61;99082.75;5130535;27;43303;-80
2021/08/17 02:50:51;;;;;;;1.70;1.40;;;;;;;12.56;78.40;99085.97;5113746;27;42402;-80
2021/08/17 02:53:20;;;;;;;1.13;0.60;;;;;;;12.58;78.07;99086.72;5131711;27;40917;-80
2021/08/17 02:55:48;;;;;;;0.80;0.60;;;;;;;12.61;78.03;99084.81;5130471;27;41726;-80
2021/08/17 02:58:16;;;;;;;0.63;0.63;;;;;;;12.64;77.92;99084.59;5129519;27;43885;-80
2021/08/17 03:00:44;;;;;;;0.53;0.53;;;;;;;12.63;77.91;99085.53;5130095;27;42581;-79
2021/08/17 03:03:12;;;;;;;0.73;0.60;;;;;;;12.63;78.18;99074.91;5113286;27;39218;-81
2021/08/17 03:05:40;;;;;;;0.83;0.83;;;;;;;12.63;77.90;99072.25;5112941;27;40809;-79
2021/08/17 03:08:07;;;;;;;1.47;1.10;;;;;;;12.53;77.98;99067.56;5113217;27;43078;-79
2021/08/17 03:10:39;;;;;;;0.37;0.37;;;;;;;12.68;77.80;99078.13;5130161;27;43203;-79
2021/08/17 03:13:08;;;;;;;0.50;0.50;;;;;;;12.58;77.88;99068.13;5111605;27;38964;-80
2021/08/17 03:15:35;;;;;;;1.07;0.80;;;;;;;12.60;77.65;99070.69;5129475;27;42000;-80
2021/08/17 03:18:06;;;;;;;1.13;0.57;;;;;;;12.74;77.71;99083.00;5111339;27;42035;-80
2021/08/17 03:20:34;;;;;;;0.50;0.50;;;;;;;12.78;77.59;99084.53;5130804;27;42482;-79
2021/08/17 03:23:02;;;;;;;0.97;0.67;;;;;;;12.80;77.29;99082.63;5128882;27;39334;-81
2021/08/17 03:25:30;;;;;;;1.23;0.77;;;;;;;12.82;77.13;99080.72;5112488;27;40769;-80
2021/08/17 03:27:59;;;;;;;0.93;0.40;;;;;;;12.87;77.09;99083.88;5129639;27;42972;-80
2021/08/17 03:30:27;;;;;;;1.07;0.60;;;;;;;12.88;77.29;99086.44;5130961;27;41991;-79
2021/08/17 03:32:55;;;;;;;0.70;0.70;;;;;;;12.88;76.90;99085.59;5113111;27;39019;-80
2021/08/17 03:35:24;;;;;;;0.70;0.70;;;;;;;12.88;77.18;99093.56;5113464;27;41864;-80
2021/08/17 03:37:52;;;;;;;1.07;0.87;;;;;;;12.86;76.60;99098.13;5130890;27;43014;-80
2021/08/17 03:40:21;;;;;;;0.40;0.40;;;;;;;12.77;76.81;99088.97;5129546;27;41212;-80
2021/08/17 03:42:50;;;;;;;0.90;0.90;;;;;;;12.81;76.62;99102.91;5130958;27;40064;-79
2021/08/17 03:45:21;;;;;;;0.73;0.60;;;;;;;12.83;76.53;99098.34;5129514;27;40673;-79
2021/08/17 03:47:48;;;;;;;1.50;0.70;;;;;;;12.71;76.61;99077.94;5129015;27;43863;-80
2021/08/17 03:50:17;;;;;;;0.70;0.67;;;;;;;12.78;76.96;99095.16;5111653;27;41223;-80
2021/08/17 03:52:45;;;;;;;2.10;0.70;;;;;;;12.65;76.80;99078.31;5112419;27;40565;-79
2021/08/17 03:55:13;;;;;;;0.70;0.70;;;;;;;12.64;76.71;99079.28;5112819;27;41769;-80
2021/08/17 03:57:41;;;;;;;1.20;1.07;;;;;;;12.69;76.63;99077.19;5129468;27;42876;-81
2021/08/17 04:00:11;;;;;;;0.67;0.67;;;;;;;12.68;77.24;99089.59;5129646;27;43273;-80
2021/08/17 04:02:42;;;;;;;1.07;1.00;;;;;;;12.60;76.75;99068.03;5129627;27;40907;-79
2021/08/17 04:05:12;;;;;;;0.90;0.90;;;;;;;12.73;76.64;99086.66;5111864;27;42020;-79
2021/08/17 04:07:40;;;;;;;0.40;0.40;;;;;;;12.64;76.77;99066.00;5112277;27;43021;-80
2021/08/17 04:10:08;;;;;;;1.40;0.93;;;;;;;12.68;76.37;99073.66;5131469;27;44066;-81
2021/08/17 04:12:36;;;;;;;0.60;0.60;;;;;;;12.84;76.23;99090.28;5129128;27;39930;-81
2021/08/17 04:15:04;;;;;;;0.67;0.67;;;;;;;12.83;76.20;99088.59;5164065;27;42005;-80
2021/08/17 04:17:32;;;;;;;1.60;1.33;;;;;;;12.76;76.26;99097.06;5129080;27;43911;-79
2021/08/17 04:20:01;;;;;;;1.07;0.97;;;;;;;12.79;76.25;99102.16;5111833;27;41433;-80
2021/08/17 04:22:28;;;;;;;0.87;0.57;;;;;;;12.73;75.85;99103.47;5112458;27;39209;-81
2021/08/17 04:24:56;;;;;;;1.53;1.23;;;;;;;12.61;75.97;99082.16;5109107;27;40733;-81
2021/08/17 04:27:23;;;;;;;1.03;0.93;;;;;;;12.86;75.80;99125.56;5129393;27;43774;-80
2021/08/17 04:29:51;;;;;;;0.43;0.40;;;;;;;12.85;75.83;99134.53;5128862;27;41298;-79
2021/08/17 04:32:19;;;;;;;1.93;0.73;;;;;;;12.87;75.93;99131.72;5129412;27;40081;-81
2021/08/17 04:34:46;;;;;;;2.10;0.87;;;;;;;12.88;76.09;99130.78;5129023;27;41812;-79
2021/08/17 04:37:15;;;;;;;1.37;0.60;;;;;;;12.93;76.01;99136.66;5132791;27;43832;-79
2021/08/17 04:39:43;;;;;;;0.80;0.80;;;;;;;12.98;76.05;99137.19;5116065;27;42369;-80
2021/08/17 04:42:11;;;;;;;0.77;0.73;;;;;;;13.07;75.80;99141.88;5133937;27;40176;-80
2021/08/17 04:44:38;;;;;;;0.57;0.50;;;;;;;13.01;75.38;99126.34;5132716;27;42761;-83
2021/08/17 04:47:06;;;;;;;0.97;0.90;;;;;;;13.18;75.07;99144.69;5115223;27;41907;-81
2021/08/17 04:49:34;;;;;;;1.37;0.87;;;;;;;13.20;75.18;99144.59;5132739;27;42652;-82
2021/08/17 04:52:01;;;;;;;0.57;0.57;;;;;;;13.27;75.16;99149.38;5133968;27;40215;-81
2021/08/17 04:54:30;;;;;;;0.50;0.50;;;;;;;13.38;75.04;99158.41;5132084;27;40847;-84
2021/08/17 04:56:58;;;;;;;0.57;0.57;;;;;;;13.38;74.52;99147.78;5132573;27;43149;-82
2021/08/17 04:59:26;;;;;;;0.50;0.50;;;;;;;13.45;74.32;99149.06;5131241;27;43207;-80
2021/08/17 05:01:54;;;;;;;1.10;1.00;;;;;;;13.60;73.75;99163.94;5115292;27;39294;-83
2021/08/17 05:04:21;;;;;;;1.13;0.90;;;;;;;13.41;73.90;99131.59;5132139;27;42767;-81
2021/08/17 05:06:51;;;;;;;0.87;0.80;;;;;;;13.63;73.50;99148.63;5132222;27;42876;-84
2021/08/17 05:09:18;;;;;;;1.13;0.53;;;;;;;13.74;73.34;99166.50;5132289;27;41166;-80
2021/08/17 05:11:47;;;;;;;0.70;0.70;;;;;;;13.86;73.24;99170.09;5131392;27;39915;-81
2021/08/17 05:14:15;;;;;;;1.10;0.73;;;;;;;13.91;73.17;99176.81;5131555;27;40925;-83
2021/08/17 05:16:43;;;;;;;0.80;0.70;;;;;;;13.97;73.24;99183.53;5114410;27;42144;-84
2021/08/17 05:19:11;;;;;;;0.97;0.83;;;;;;;13.99;73.09;99182.44;5131606;27;42430;-85
2021/08/17 05:21:38;;;;;;;1.90;0.80;;;;;;;14.11;72.66;99174.53;5114970;27;39824;-81
2021/08/17 05:24:06;;;;;;;0.70;0.70;;;;;;;14.27;72.14;99189.31;5113855;27;41796;-82
2021/08/17 05:26:34;;;;;;;1.90;0.80;;;;;;;14.33;71.80;99170.22;5133288;27;42001;-83
2021/08/17 05:29:03;;;;;;;0.73;0.73;;;;;;;14.51;71.58;99188.50;5132267;27;42265;-82
2021/08/17 05:31:31;;;;;;;1.60;1.23;;;;;;;14.45;71.23;99179.16;5132909;27;40078;-82
2021/08/17 05:33:59;;;;;;;0.83;0.50;;;;;;;14.37;71.58;99171.69;5131497;27;42030;-83
2021/08/17 05:36:30;;;;;;;1.03;0.67;;;;;;;14.25;70.95;99155.72;5132925;27;43037;-84
2021/08/17 05:38:58;;;;;;;0.80;0.80;;;;;;;14.25;70.92;99161.06;5131671;27;42807;-85
2021/08/17 05:41:25;;;;;;;1.93;1.47;;;;;;;14.42;71.08;99187.38;5131700;27;39809;-82
2021/08/17 05:43:53;;;;;;;1.77;0.87;;;;;;;14.27;70.76;99159.13;5114060;27;41043;-83
2021/08/17 05:46:23;;;;;;;0.50;0.40;;;;;;;14.52;70.76;99188.41;5115054;27;43820;-88
2021/08/17 05:48:50;;;;;;;0.73;0.50;;;;;;;14.57;70.61;99186.25;5111300;27;41414;-77
2021/08/17 05:51:18;;;;;;;0.83;0.80;;;;;;;14.54;70.43;99173.16;5127751;27;40045;-80
2021/08/17 05:53:46;;;;;;;1.27;1.20;;;;;;;14.64;70.35;99167.97;5131314;27;42741;-83
2021/08/17 05:56:13;;;;;;;0.93;0.93;;;;;;;14.70;70.26;99168.41;5106879;27;41714;-85
2021/08/17 05:58:42;;;;;;;1.40;0.87;;;;;;;14.78;69.79;99164.28;5131642;27;41176;-84
2021/08/17 06:01:10;;;;;;;1.03;0.87;;;;;;;14.93;69.38;99179.16;5112378;27;38892;-83
2021/08/17 06:03:39;;;;;;;1.70;1.20;;;;;;;15.07;68.68;99197.63;5130841;27;41054;-86
2021/08/17 06:06:07;;;;;;;1.20;1.10;;;;;;;15.01;68.44;99176.75;5113414;27;41701;-88
2021/08/17 06:08:34;;;;;;;0.50;0.47;;;;;;;15.18;68.21;99188.81;5114404;27;41447;-82
2021/08/17 06:11:03;;;;;;;1.10;0.80;;;;;;;15.20;67.99;99166.41;5112517;27;38885;-86
2021/08/17 06:13:31;;;;;;;0.50;0.50;;;;;;;15.40;67.84;99189.72;5131820;27;41898;-84
2021/08/17 06:15:59;;;;;;;0.60;0.47;;;;;;;15.36;67.59;99182.06;5113451;27;41813;-87
2021/08/17 06:18:27;;;;;;;0.40;0.40;;;;;;;15.64;66.75;99187.00;5148567;27;41643;-88
2021/08/17 06:20:56;;;;;;;0.73;0.70;;;;;;;15.90;65.75;99198.31;5113782;27;39037;-81
2021/08/17 06:23:24;;;;;;;0.77;0.77;;;;;;;15.93;65.60;99182.06;5113438;27;41121;-86
2021/08/17 06:25:52;;;;;;;1.23;0.70;;;;;;;15.93;65.31;99176.72;5113078;27;42015;-84
2021/08/17 06:28:20;;;;;;;0.93;0.83;;;;;;;16.19;65.14;99184.47;5130990;27;43219;-82
2021/08/17 06:30:47;;;;;;;1.40;1.17;;;;;;;16.55;64.42;99188.66;5131740;27;39997;-87
2021/08/17 06:33:15;;;;;;;1.60;1.43;;;;;;;17.19;62.67;99202.91;5129691;27;40824;-87
2021/08/17 06:35:43;;;;;;;1.20;1.10;;;;;;;17.86;61.19;99216.78;5113968;27;41973;-85
2021/08/17 06:38:13;;;;;;;3.10;1.20;;;;;;;18.05;60.89;99189.22;5129808;27;41431;-83
2021/08/17 06:40:41;;;;;;;0.60;0.60;;;;;;;18.22;60.90;99227.94;5130290;27;40194;-81
2021/08/17 06:43:08;;;;;;;1.93;1.03;;;;;;;18.08;60.75;99231.84;5129323;27;40911;-79
2021/08/17 06:45:36;;;;;;;0.60;0.60;;;;;;;17.85;61.08;99214.22;5129389;27;42918;-83
2021/08/17 06:48:05;;;;;;;1.90;1.57;;;;;;;17.90;60.73;99230.78;5112928;27;41595;-83
2021/08/17 06:50:33;;;;;;;0.67;0.67;;;;;;;17.77;60.97;99230.97;5113674;27;39130;-84
2021/08/17 06:53:02;;;;;;;0.80;0.80;;;;;;;17.58;60.41;99207.56;5112641;27;41916;-87
2021/08/17 06:55:31;;;;;;;0.77;0.77;;;;;;;17.54;60.31;99210.66;5095612;27;42832;-81
2021/08/17 06:57:59;;;;;;;1.87;1.27;;;;;;;17.54;60.13;99216.84;5112313;27;41519;-85
2021/08/17 07:00:27;;;;;;;2.00;1.20;;;;;;;17.75;60.28;99240.13;5129851;27;39115;-84
2021/08/17 07:02:55;;;;;;;1.00;0.90;;;;;;;17.77;59.81;99238.16;5165139;27;41720;-81
2021/08/17 07:05:23;;;;;;;1.00;1.00;;;;;;;17.57;59.01;99238.00;5131428;27;42970;-87
2021/08/17 07:07:50;;;;;;;1.07;0.70;;;;;;;17.51;59.64;99246.56;5112855;27;42147;-82
2021/08/17 07:10:18;;;;;;;1.70;0.80;;;;;;;17.53;60.28;99247.28;5112663;27;39042;-81
2021/08/17 07:12:47;;;;;;;1.47;0.90;;;;;;;17.58;59.94;99239.69;5130346;27;41937;-83
2021/08/17 07:15:15;;;;;;;0.70;0.60;;;;;;;17.63;59.39;99242.03;5111790;27;41884;-82
2021/08/17 07:17:42;;;;;;;1.17;1.07;;;;;;;17.72;59.82;99235.03;5113477;27;41325;-81
2021/08/17 07:20:11;;;;;;;1.73;0.83;;;;;;;17.78;60.65;99231.84;5111795;27;40422;-78
2021/08/17 07:22:39;;;;;;;1.00;1.00;;;;;;;17.79;59.88;99246.94;5130158;27;41079;-84
2021/08/17 07:25:08;;;;;;;0.80;0.80;;;;;;;17.68;58.97;99230.94;5129012;27;43837;-83
2021/08/17 07:27:36;;;;;;;1.37;0.93;;;;;;;17.73;58.96;99236.72;5129466;27;43152;-80
2021/08/17 07:30:11;;;;;;;1.20;1.10;;;;;;;17.68;58.80;99241.66;5129181;27;40195;-80
2021/08/17 07:32:40;;;;;;;1.30;1.20;;;;;;;17.58;59.06;99234.34;5130347;27;42033;-87
2021/08/17 07:35:10;;;;;;;0.63;0.57;;;;;;;17.91;59.58;99221.75;5129862;27;43081;-87
2021/08/17 07:37:38;;;;;;;1.17;1.03;;;;;;;18.18;58.36;99243.44;5113426;27;41450;-86
2021/08/17 07:40:08;;;;;;;2.23;2.00;;;;;;;18.46;57.64;99249.06;5108092;28;38752;-89
2021/08/17 07:42:36;;;;;;;0.97;0.90;;;;;;;18.43;56.97;99249.31;5109875;28;40658;-84
2021/08/17 07:45:08;;;;;;;3.17;1.13;;;;;;;18.49;57.15;99264.88;5107758;28;41704;-81
2021/08/17 07:47:37;;;;;;;0.70;0.70;;;;;;;18.48;57.35;99266.72;5109291;28;41178;-82
2021/08/17 07:50:06;;;;;;;1.17;1.00;;;;;;;18.93;56.13;99261.78;5093235;27;40029;-84
2021/08/17 07:52:35;;;;;;;3.53;1.40;;;;;;;19.10;55.33;99262.94;5129132;27;42165;-85
2021/08/17 07:55:04;;;;;;;1.10;1.00;;;;;;;19.17;55.68;99273.94;5111291;27;43131;-82
2021/08/17 07:57:32;;;;;;;0.90;0.90;;;;;;;19.07;55.59;99273.09;5113166;27;41187;-83
2021/08/17 08:00:00;;;;;;;1.50;1.10;;;;;;;18.92;55.70;99262.75;5128516;27;40060;-84
2021/08/17 08:02:29;;;;;;;2.27;1.17;;;;;;;18.77;55.93;99261.47;5129750;27;42403;-78
2021/08/17 08:04:57;;;;;;;1.73;1.30;;;;;;;18.71;56.65;99256.66;5128464;27;43046;-84
2021/08/17 08:07:25;;;;;;;1.03;0.93;;;;;;;18.59;56.51;99247.03;5129253;27;42431;-82
2021/08/17 08:09:52;;;;;;;1.17;1.00;;;;;;;18.70;57.23;99260.31;5129462;27;40174;-81
2021/08/17 08:12:20;;;;;;;0.97;0.97;;;;;;;18.79;55.50;99266.72;5111609;27;40887;-80
2021/08/17 08:14:48;;;;;;;2.33;1.27;;;;;;;18.95;54.67;99262.50;5128375;27;42101;-89
2021/08/17 08:17:16;;;;;;;1.50;1.23;;;;;;;19.23;54.63;99284.16;5111463;27;41360;-83
2021/08/17 08:19:45;;;;;;;1.30;1.20;;;;;;;19.37;53.62;99287.28;5112376;27;40957;-83
2021/08/17 08:22:12;;;;;;;1.47;0.80;;;;;;;19.56;53.77;99277.53;5128694;27;41117;-84
2021/08/17 08:24:40;;;;;;;2.90;1.20;;;;;;;19.59;53.16;99280.78;5128173;27;43944;-83
2021/08/17 08:27:10;;;;;;;2.37;1.47;;;;;;;20.24;52.47;99276.41;5110278;27;41400;-86
2021/08/17 08:29:40;;;;;;;1.13;1.03;;;;;;;20.53;51.63;99281.69;5111958;27;39198;-86
2021/08/17 08:32:08;;;;;;;1.70;1.23;;;;;;;20.66;50.63;99292.13;5110756;27;40742;-82
2021/08/17 08:34:36;;;;;;;1.40;1.30;;;;;;;20.78;50.81;99296.31;5111902;27;41937;-82
2021/08/17 08:37:06;;;;;;;3.03;1.40;;;;;;;20.74;50.54;99284.16;5111182;27;42642;-86
2021/08/17 08:39:34;;;;;;;2.43;1.40;;;;;;;20.54;50.54;99263.72;5112432;27;39070;-86
2021/08/17 08:42:03;;;;;;;1.00;0.80;;;;;;;21.29;49.99;99292.19;5108223;28;42250;-83
2021/08/17 08:44:30;;;;;;;1.77;1.10;;;;;;;21.52;48.32;99283.50;5109753;28;43060;-82
2021/08/17 08:46:59;;;;;;;1.17;0.80;;;;;;;21.55;47.66;99285.03;5109166;27;41046;-86
2021/08/17 08:49:27;;;;;;;1.53;1.33;;;;;;;21.64;47.51;99278.72;5111108;27;39008;-84
2021/08/17 08:51:55;;;;;;;1.97;1.30;;;;;;;21.88;47.31;99291.56;5111989;27;42314;-85
2021/08/17 08:54:25;;;;;;;1.40;1.30;;;;;;;21.98;46.99;99259.09;5129775;27;43664;-85
2021/08/17 08:56:52;;;;;;;1.83;1.63;;;;;;;22.09;46.28;99288.53;5111904;27;42542;-84
2021/08/17 08:59:20;;;;;;;1.13;1.07;;;;;;;22.65;45.48;99312.28;5110352;27;38976;-82
2021/08/17 09:01:50;;;;;;;2.03;1.43;;;;;;;22.89;43.70;99319.69;5111212;27;40629;-88
2021/08/17 09:04:18;;;;;;;1.47;0.90;;;;;;;22.91;44.19;99301.47;5111215;27;41851;-87
2021/08/17 09:06:54;;;;;;;1.20;1.03;;;;;;;22.84;44.60;99316.66;5110501;27;42237;-87
2021/08/17 09:09:22;;;;;;;1.57;1.03;;;;;;;22.77;44.76;99310.19;5129625;27;40978;-91
2021/08/17 09:11:54;;;;;;;1.50;1.30;;;;;;;22.96;43.85;99314.50;5110032;27;40598;-86
2021/08/17 09:14:44;;;;;;;5.10;2.30;;;;;;;22.80;44.54;99272.91;5110829;27;41515;-92
2021/08/17 09:17:12;;;;;;;1.63;1.53;;;;;;;23.94;42.40;99306.38;5110724;27;41510;-83
2021/08/17 09:19:42;;;;;;;2.47;1.53;;;;;;;25.45;39.91;99327.09;5129629;27;39836;-81
2021/08/17 09:22:16;;;;;;;2.33;1.60;;;;;;;27.02;37.64;99335.34;5112610;27;41052;-87
2021/08/17 09:24:46;;;;;;;2.47;1.77;;;;;;;27.34;36.03;99350.38;5115289;27;42018;-88
2021/08/17 09:27:17;;;;;;;2.07;1.10;;;;;;;26.55;37.76;99336.56;5130680;27;41187;-82
2021/08/17 09:29:47;;;;;;;1.60;1.30;;;;;;;25.74;38.59;99326.38;5115298;27;39249;-82
2021/08/17 09:32:17;;;;;;;3.10;2.13;;;;;;;25.01;39.15;99313.25;5130761;27;41632;-83
2021/08/17 09:35:00;;;;;;;1.80;1.17;;;;;;;24.58;39.72;99304.63;5130873;27;41990;-90
2021/08/17 09:37:28;;;;;;;1.83;1.37;;;;;;;24.27;40.23;99317.19;5149408;27;41481;-83
2021/08/17 09:39:57;;;;;;;1.73;1.30;;;;;;;23.96;40.65;99298.97;5131685;27;39861;-86
2021/08/17 09:42:28;;;;;;;2.20;1.53;;;;;;;23.90;41.02;99313.16;5110151;28;40874;-88
2021/08/17 09:45:07;;;;;;;1.20;1.07;;;;;;;23.69;41.08;99302.00;5094537;27;41947;-85
2021/08/17 09:47:35;;;;;;;2.07;1.87;;;;;;;23.79;40.74;99313.50;5114504;27;41344;-83
2021/08/17 09:50:21;;;;;;;2.10;1.40;;;;;;;24.07;40.25;99313.16;5131129;27;38833;-84
2021/08/17 09:52:50;;;;;;;2.10;1.40;;;;;;;24.16;40.59;99298.56;5130942;27;41942;-83
2021/08/17 09:55:19;;;;;;;1.87;1.40;;;;;;;24.00;40.27;99294.03;5132703;27;42889;-86
2021/08/17 09:57:49;;;;;;;1.67;1.23;;;;;;;23.88;40.46;99296.22;5131349;27;41442;-84
2021/08/17 10:00:17;;;;;;;1.60;1.27;;;;;;;23.98;39.92;99305.00;5130919;27;40163;-84
2021/08/17 10:02:48;;;;;;;1.60;1.00;;;;;;;24.10;39.38;99315.53;5129128;27;40841;-83
2021/08/17 10:05:16;;;;;;;1.90;1.63;;;;;;;24.40;39.79;99301.28;5129497;27;43416;-83
2021/08/17 10:07:51;;;;;;;2.40;1.53;;;;;;;24.34;38.56;99315.50;5131007;27;42565;-82
2021/08/17 10:10:18;;;;;;;1.43;1.33;;;;;;;24.74;38.76;99319.09;5113406;27;39062;-83
2021/08/17 10:12:48;;;;;;;2.27;1.40;;;;;;;25.34;37.17;99317.50;5130329;27;41480;-85
2021/08/17 10:15:17;;;;;;;1.93;1.60;;;;;;;25.15;38.12;99296.25;5130158;27;43200;-86
2021/08/17 10:17:45;;;;;;;2.43;1.40;;;;;;;25.03;38.61;99293.09;5130807;27;43000;-88
2021/08/17 10:20:16;;;;;;;1.80;1.47;;;;;;;25.04;37.29;99310.22;5130187;27;38750;-86
2021/08/17 10:22:45;;;;;;;2.53;1.60;;;;;;;25.05;37.53;99273.94;5113802;27;41145;-85
2021/08/17 10:25:17;;;;;;;2.07;1.07;;;;;;;25.22;36.75;99308.06;5130679;27;43168;-87
2021/08/17 10:27:45;;;;;;;3.13;1.63;;;;;;;25.04;37.46;99283.09;5114836;27;41389;-86
2021/08/17 10:30:21;;;;;;;1.63;1.40;;;;;;;24.98;37.55;99286.50;5131736;27;40057;-89
2021/08/17 10:32:57;;;;;;;2.47;1.47;;;;;;;24.99;38.44;99282.78;5110413;28;40846;-87
2021/08/17 10:35:59;;;;;;;2.53;1.40;;;;;;;24.87;38.69;99270.63;5132569;27;42676;-87
2021/08/17 10:38:48;;;;;;;1.63;1.37;;;;;;;24.70;39.22;99276.13;5113496;27;41333;-86
2021/08/17 10:41:27;;;;;;;2.30;1.63;;;;;;;24.76;39.37;99279.13;5112172;27;39973;-84
2021/08/17 10:44:16;;;;;;;1.30;1.20;;;;;;;25.48;38.27;99279.75;5109617;27;40751;-86
2021/08/17 10:47:03;;;;;;;1.73;1.37;;;;;;;26.12;38.07;99284.66;5129297;27;41865;-82
2021/08/17 10:49:43;;;;;;;2.40;1.23;;;;;;;26.07;35.95;99287.13;5112178;27;42510;-84
2021/08/17 10:52:13;;;;;;;1.70;1.60;;;;;;;25.60;37.48;99283.72;5112398;27;39207;-86
2021/08/17 10:54:41;;;;;;;3.77;2.03;;;;;;;25.03;38.70;99276.84;5128236;27;41821;-83
2021/08/17 10:57:19;;;;;;;1.30;1.20;;;;;;;24.52;39.85;99261.97;5129107;27;41539;-83
2021/08/17 10:59:48;;;;;;;2.43;1.40;;;;;;;24.00;39.65;99229.94;5131464;27;42694;-85
2021/08/17 11:02:23;;;;;;;2.27;1.73;;;;;;;24.16;40.37;99257.97;5111156;27;39050;-85
2021/08/17 11:04:52;;;;;;;2.03;1.63;;;;;;;24.30;39.98;99254.59;5112139;27;40385;-89
2021/08/17 11:07:32;;;;;;;1.70;1.47;;;;;;;24.74;38.83;99218.88;5127229;27;42468;-86
2021/08/17 11:10:03;;;;;;;1.70;1.60;;;;;;;25.61;38.28;99250.19;5111712;27;41263;-89
2021/08/17 11:12:46;;;;;;;1.50;1.23;;;;;;;26.20;36.26;99269.34;5092834;28;39786;-89
2021/08/17 11:15:32;;;;;;;2.03;1.37;;;;;;;26.74;34.88;99288.94;5128469;27;41797;-90
2021/08/17 11:18:04;;;;;;;1.97;1.40;;;;;;;27.03;34.46;99293.53;5112795;27;42736;-86
2021/08/17 11:20:32;;;;;;;1.87;1.47;;;;;;;27.24;34.00;99292.72;5111736;27;41337;-86
2021/08/17 11:23:00;;;;;;;1.70;1.43;;;;;;;27.30;34.19;99290.09;5113701;27;39240;-84
2021/08/17 11:25:28;;;;;;;2.23;1.70;;;;;;;27.34;34.37;99296.81;5112994;27;40992;-84
2021/08/17 11:27:56;;;;;;;2.53;1.77;;;;;;;27.31;34.24;99307.25;5113411;27;41640;-84
2021/08/17 11:30:24;;;;;;;3.13;1.57;;;;;;;27.11;35.00;99288.81;5128507;27;42110;-80
2021/08/17 11:32:58;;;;;;;1.57;1.10;;;;;;;27.06;34.03;99304.88;5113195;27;38972;-88
2021/08/17 11:35:27;;;;;;;3.40;2.43;;;;;;;26.98;33.90;99310.41;5110786;27;40722;-86
2021/08/17 11:37:58;;;;;;;2.83;1.70;;;;;;;26.94;34.68;99311.00;5112775;27;41814;-77
2021/08/17 11:40:27;;;;;;;3.13;1.77;;;;;;;27.13;34.49;99315.81;5129148;27;42577;-86
2021/08/17 11:42:57;;;;;;;1.93;1.43;;;;;;;27.19;34.66;99304.19;5112243;27;39104;-87